createdAt,value
2023-02-28T00:00:13.940Z,1.85
2023-02-28T00:02:42.307Z,2.20
2023-02-28T00:05:10.595Z,2.05
2023-02-28T00:07:37.292Z,2.17
2023-02-28T00:10:07.228Z,2.22
2023-02-28T00:12:34.376Z,1.88
2023-02-28T00:15:01.206Z,2.15
2023-02-28T00:17:27.534Z,3.10
2023-02-28T00:19:53.833Z,2.08
2023-02-28T00:22:21.853Z,2.67
2023-02-28T00:24:48.378Z,2.05
2023-02-28T00:27:15.682Z,2.28
2023-02-28T00:29:41.981Z,1.75
2023-02-28T00:32:08.410Z,1.52
2023-02-28T00:34:38.532Z,2.63
2023-02-28T00:37:09.960Z,1.88
2023-02-28T00:39:37.625Z,2.20
2023-02-28T00:42:04.728Z,2.20
2023-02-28T00:44:31.419Z,2.08
2023-02-28T00:46:58.265Z,2.22
2023-02-28T00:49:25.530Z,2.22
2023-02-28T00:51:52.758Z,2.30
2023-02-28T00:54:19.561Z,2.42
2023-02-28T00:56:46.882Z,2.15
2023-02-28T00:59:14.571Z,1.92
2023-02-28T01:01:41.118Z,2.28
2023-02-28T01:04:07.663Z,1.92
2023-02-28T01:06:34.168Z,2.67
2023-02-28T01:09:00.962Z,2.15
2023-02-28T01:11:27.657Z,2.30
2023-02-28T01:13:54.157Z,2.28
2023-02-28T01:16:20.536Z,2.28
2023-02-28T01:18:46.821Z,1.83
2023-02-28T01:21:16.244Z,2.40
2023-02-28T01:23:43.257Z,2.22
2023-02-28T01:26:13.224Z,2.30
2023-02-28T01:28:39.531Z,3.05
2023-02-28T01:31:06.405Z,2.75
2023-02-28T01:33:33.429Z,2.17
2023-02-28T01:36:10.676Z,2.42
2023-02-28T01:38:37.182Z,2.22
2023-02-28T01:41:03.919Z,2.15
2023-02-28T01:43:55.802Z,2.30
2023-02-28T01:46:22.154Z,2.20
2023-02-28T01:48:57.978Z,2.13
2023-02-28T01:51:29.301Z,2.42
2023-02-28T01:54:14.286Z,2.13
2023-02-28T01:56:47.638Z,2.08
2023-02-28T01:59:20.750Z,2.40
2023-02-28T02:01:47.705Z,2.63
2023-02-28T02:04:14.102Z,2.40
2023-02-28T02:06:44.377Z,2.67
2023-02-28T02:09:12.445Z,2.30
2023-02-28T02:11:41.563Z,2.53
2023-02-28T02:14:27.949Z,2.05
2023-02-28T02:17:22.846Z,2.88
2023-02-28T02:20:28.584Z,2.45
2023-02-28T02:23:13.388Z,3.05
2023-02-28T02:25:46.984Z,2.80
2023-02-28T02:28:36.014Z,2.88
2023-02-28T02:31:26.481Z,2.35
2023-02-28T02:34:27.201Z,3.47
2023-02-28T02:37:29.799Z,3.60
2023-02-28T02:40:17.413Z,3.85
2023-02-28T02:42:51.683Z,3.38
2023-02-28T02:45:38.300Z,3.15
2023-02-28T02:48:09.958Z,3.88
2023-02-28T02:51:12.735Z,3.47
2023-02-28T02:53:44.972Z,2.60
2023-02-28T02:56:12.848Z,2.92
2023-02-28T02:58:43.105Z,3.40
2023-02-28T03:01:13.781Z,3.40
2023-02-28T03:03:40.583Z,2.85
2023-02-28T03:06:07.334Z,2.97
2023-02-28T03:08:38.901Z,3.38
2023-02-28T03:11:13.231Z,3.42
2023-02-28T03:14:02.313Z,3.53
2023-02-28T03:16:35.526Z,3.22
2023-02-28T03:19:24.730Z,3.00
2023-02-28T03:22:23.514Z,3.17
2023-02-28T03:25:10.689Z,3.30
2023-02-28T03:27:54.942Z,2.97
2023-02-28T03:30:29.246Z,4.55
2023-02-28T03:33:18.617Z,4.15
2023-02-28T03:35:53.314Z,2.72
2023-02-28T03:38:26.367Z,3.22
2023-02-28T03:41:06.352Z,3.10
2023-02-28T03:43:36.565Z,2.75
2023-02-28T03:46:08.134Z,2.95
2023-02-28T03:48:43.920Z,2.78
2023-02-28T03:51:16.484Z,3.38
2023-02-28T03:53:53.118Z,2.58
2023-02-28T03:56:28.602Z,3.42
2023-02-28T03:59:18.879Z,3.30
2023-02-28T04:01:48.154Z,3.58
2023-02-28T04:04:15.890Z,2.60
2023-02-28T04:06:43.601Z,3.72
2023-02-28T04:11:41.033Z,3.85
2023-02-28T04:14:08.733Z,3.40
2023-02-28T04:16:37.218Z,3.85
2023-02-28T04:19:06.133Z,2.78
2023-02-28T04:21:34.883Z,3.88
2023-02-28T04:24:01.614Z,3.25
2023-02-28T04:26:32.297Z,3.40
2023-02-28T04:28:59.770Z,3.75
2023-02-28T04:33:52.776Z,3.05
2023-02-28T04:36:19.440Z,4.20
2023-02-28T04:38:46.693Z,4.95
2023-02-28T04:41:13.942Z,3.40
2023-02-28T04:43:40.317Z,3.97
2023-02-28T04:46:07.806Z,3.30
2023-02-28T04:48:36.399Z,3.38
2023-02-28T04:51:04.922Z,4.20
2023-02-28T04:53:31.923Z,3.33
2023-02-28T04:55:59.307Z,3.40
2023-02-28T04:58:26.122Z,3.42
2023-02-28T05:00:53.475Z,3.83
2023-02-28T05:03:21.672Z,3.85
2023-02-28T05:05:47.967Z,3.95
2023-02-28T05:08:14.364Z,5.15
2023-02-28T05:10:40.755Z,4.22
2023-02-28T05:13:07.089Z,4.47
2023-02-28T05:15:35.600Z,3.22
2023-02-28T05:18:02.043Z,5.32
2023-02-28T05:20:28.493Z,3.42
2023-02-28T05:22:54.839Z,3.45
2023-02-28T05:25:24.953Z,2.97
2023-02-28T05:27:51.703Z,4.13
2023-02-28T05:30:18.265Z,4.00
2023-02-28T05:32:44.620Z,3.60
2023-02-28T05:35:12.183Z,3.63
2023-02-28T05:37:39.716Z,4.53
2023-02-28T05:40:08.045Z,3.25
2023-02-28T05:42:34.394Z,3.55
2023-02-28T05:45:00.691Z,3.40
2023-02-28T05:47:27.098Z,3.75
2023-02-28T05:49:53.536Z,3.17
2023-02-28T05:52:19.826Z,4.15
2023-02-28T05:54:47.499Z,4.43
2023-02-28T05:57:22.879Z,4.90
2023-02-28T05:59:50.770Z,4.15
2023-02-28T06:02:18.648Z,4.07
2023-02-28T06:04:45.746Z,3.70
2023-02-28T06:07:12.147Z,3.63
2023-02-28T06:09:39.072Z,3.97
2023-02-28T06:12:08.068Z,2.90
2023-02-28T06:14:35.396Z,3.45
2023-02-28T06:17:02.978Z,4.28
2023-02-28T06:19:30.829Z,3.78
2023-02-28T06:21:58.123Z,3.40
2023-02-28T06:24:26.014Z,3.53
2023-02-28T06:26:52.320Z,3.78
2023-02-28T06:29:19.307Z,3.45
2023-02-28T06:31:46.831Z,3.22
2023-02-28T06:36:40.967Z,3.10
2023-02-28T06:39:08.481Z,3.45
2023-02-28T06:44:22.217Z,3.50
2023-02-28T06:46:48.814Z,3.25
2023-02-28T06:49:15.732Z,3.47
2023-02-28T06:51:46.018Z,3.42
2023-02-28T06:54:13.291Z,3.38
2023-02-28T06:56:39.860Z,4.32
2023-02-28T06:59:06.287Z,3.45
2023-02-28T07:01:33.710Z,3.83
2023-02-28T07:04:01.435Z,3.55
2023-02-28T07:06:28.490Z,4.05
2023-02-28T07:08:55.908Z,3.85
2023-02-28T07:13:54.736Z,3.50
2023-02-28T07:16:22.024Z,3.28
2023-02-28T07:18:48.996Z,3.22
2023-02-28T07:21:16.371Z,3.50
2023-02-28T07:23:42.877Z,3.63
2023-02-28T07:26:16.284Z,3.13
2023-02-28T07:28:43.711Z,3.67
2023-02-28T07:33:37.369Z,3.13
2023-02-28T07:36:05.655Z,3.03
2023-02-28T07:38:34.960Z,2.67
2023-02-28T07:41:01.272Z,3.35
2023-02-28T07:43:27.576Z,3.35
2023-02-28T07:45:53.861Z,3.08
2023-02-28T07:48:20.236Z,2.70
2023-02-28T07:50:56.239Z,3.00
2023-02-28T07:53:23.186Z,3.47
2023-02-28T07:55:49.859Z,3.25
2023-02-28T07:58:16.164Z,2.80
2023-02-28T08:00:42.559Z,3.33
2023-02-28T08:03:13.406Z,2.78
2023-02-28T08:05:42.789Z,2.70
2023-02-28T08:08:09.255Z,2.70
2023-02-28T08:10:35.574Z,2.70
2023-02-28T08:13:01.867Z,2.67
2023-02-28T08:15:28.373Z,2.92
2023-02-28T08:17:57.027Z,3.20
2023-02-28T08:20:25.054Z,3.00
2023-02-28T08:22:51.373Z,2.50
2023-02-28T08:25:18.617Z,3.33
2023-02-28T08:27:45.364Z,2.65
2023-02-28T08:30:13.605Z,2.85
2023-02-28T08:32:41.298Z,3.08
2023-02-28T08:35:10.010Z,2.92
2023-02-28T08:37:36.656Z,2.72
2023-02-28T08:40:07.493Z,3.60
2023-02-28T08:42:33.856Z,2.90
2023-02-28T08:45:00.184Z,3.47
2023-02-28T08:47:26.946Z,3.20
2023-02-28T08:49:53.336Z,3.15
2023-02-28T08:52:19.842Z,2.92
2023-02-28T08:54:46.233Z,3.78
2023-02-28T08:57:12.524Z,3.17
2023-02-28T08:59:38.933Z,3.25
2023-02-28T09:02:05.229Z,3.80
2023-02-28T09:04:31.936Z,3.25
2023-02-28T09:06:58.302Z,3.85
2023-02-28T09:09:24.641Z,3.67
2023-02-28T09:11:51.177Z,4.15
2023-02-28T09:14:18.389Z,5.07
2023-02-28T09:16:44.832Z,3.95
2023-02-28T09:19:12.951Z,3.78
2023-02-28T09:21:39.347Z,4.35
2023-02-28T09:24:06.017Z,4.00
2023-02-28T09:26:38.849Z,4.88
2023-02-28T09:29:13.779Z,4.80
2023-02-28T09:31:40.262Z,5.35
2023-02-28T09:34:06.719Z,4.57
2023-02-28T09:36:43.652Z,4.28
2023-02-28T09:39:11.099Z,4.40
2023-02-28T09:41:50.954Z,4.07
2023-02-28T09:44:35.880Z,4.63
2023-02-28T09:47:24.978Z,4.57
2023-02-28T09:49:51.495Z,5.00
2023-02-28T09:52:20.742Z,4.47
2023-02-28T09:54:48.134Z,4.70
2023-02-28T09:57:39.995Z,4.50
2023-02-28T10:00:19.446Z,4.25
2023-02-28T10:02:51.694Z,4.60
2023-02-28T10:05:22.944Z,5.03
2023-02-28T10:08:06.719Z,4.40
2023-02-28T10:10:39.614Z,4.88
2023-02-28T10:13:17.679Z,4.72
2023-02-28T10:15:47.206Z,4.75
2023-02-28T10:18:17.491Z,5.75
2023-02-28T10:20:44.566Z,4.53
2023-02-28T10:23:20.922Z,4.18
2023-02-28T10:25:57.847Z,4.80
2023-02-28T10:28:27.100Z,4.70
2023-02-28T10:30:54.865Z,4.80
2023-02-28T10:33:35.113Z,4.63
2023-02-28T10:36:02.912Z,4.78
2023-02-28T10:38:35.163Z,5.25
2023-02-28T10:41:37.021Z,4.47
2023-02-28T10:44:15.579Z,4.40
2023-02-28T10:46:42.920Z,4.72
2023-02-28T10:49:22.815Z,4.78
2023-02-28T10:51:53.656Z,4.88
2023-02-28T10:54:24.110Z,4.65
2023-02-28T10:57:17.391Z,4.78
2023-02-28T10:59:43.706Z,4.70
2023-02-28T11:02:36.433Z,4.93
2023-02-28T11:05:03.420Z,4.28
2023-02-28T11:07:37.317Z,4.53
2023-02-28T11:10:22.488Z,4.65
2023-02-28T11:12:52.997Z,4.78
2023-02-28T11:15:28.208Z,5.03
2023-02-28T11:18:18.614Z,3.78
2023-02-28T11:20:50.953Z,4.38
2023-02-28T11:23:19.733Z,4.13
2023-02-28T11:25:54.602Z,5.10
2023-02-28T11:28:32.105Z,4.10
2023-02-28T11:31:14.722Z,4.53
2023-02-28T11:33:51.664Z,5.20
2023-02-28T11:36:27.478Z,4.80
2023-02-28T11:38:55.672Z,5.25
2023-02-28T11:42:09.143Z,5.32
2023-02-28T11:44:55.783Z,4.88
2023-02-28T11:47:49.481Z,5.18
2023-02-28T11:50:45.234Z,5.80
2023-02-28T11:53:23.118Z,4.80
2023-02-28T11:55:59.256Z,5.53
2023-02-28T11:58:34.018Z,4.80
2023-02-28T12:01:15.527Z,5.07
2023-02-28T12:03:53.917Z,5.30
2023-02-28T12:06:42.392Z,4.75
2023-02-28T12:09:30.839Z,4.68
2023-02-28T12:12:06.170Z,4.97
2023-02-28T12:14:59.426Z,5.22
2023-02-28T12:17:32.487Z,5.07
2023-02-28T12:20:23.690Z,5.05
2023-02-28T12:23:03.365Z,4.38
2023-02-28T12:28:05.209Z,4.72
2023-02-28T12:30:34.749Z,4.50
2023-02-28T12:33:08.880Z,4.50
2023-02-28T12:35:39.643Z,5.00
2023-02-28T12:38:20.417Z,5.00
2023-02-28T12:41:05.473Z,5.68
2023-02-28T12:43:44.251Z,5.55
2023-02-28T12:46:21.037Z,5.25
2023-02-28T12:48:58.553Z,5.78
2023-02-28T12:51:27.685Z,7.07
2023-02-28T12:54:04.672Z,5.05
2023-02-28T12:56:39.695Z,5.05
2023-02-28T12:59:16.213Z,5.30
2023-02-28T13:02:02.526Z,5.38
2023-02-28T13:04:52.059Z,5.30
2023-02-28T13:07:54.475Z,5.60
2023-02-28T13:10:21.325Z,5.38
2023-02-28T13:12:49.807Z,6.05
2023-02-28T13:15:29.628Z,5.18
2023-02-28T13:17:59.574Z,5.72
2023-02-28T13:20:38.197Z,5.43
2023-02-28T13:23:06.407Z,5.35
2023-02-28T13:25:35.440Z,5.75
2023-02-28T13:28:09.360Z,5.85
2023-02-28T13:30:58.206Z,5.50
2023-02-28T13:33:58.033Z,7.78
2023-02-28T13:36:32.635Z,5.78
2023-02-28T13:39:02.779Z,5.13
2023-02-28T13:41:32.339Z,5.88
2023-02-28T13:44:04.937Z,5.53
2023-02-28T13:46:35.035Z,5.95
2023-02-28T13:49:21.820Z,5.32
2023-02-28T13:51:52.040Z,4.82
2023-02-28T13:54:25.113Z,5.20
2023-02-28T13:57:11.113Z,5.45
2023-02-28T14:02:44.861Z,5.40
2023-02-28T14:05:20.662Z,5.60
2023-02-28T14:08:18.849Z,4.78
2023-02-28T14:10:49.185Z,5.20
2023-02-28T14:13:35.661Z,4.78
2023-02-28T14:16:08.094Z,5.05
2023-02-28T14:18:37.235Z,5.43
2023-02-28T14:21:13.738Z,5.20
2023-02-28T14:24:06.005Z,4.47
2023-02-28T14:26:53.903Z,5.60
2023-02-28T14:29:38.886Z,5.07
2023-02-28T14:32:20.151Z,4.32
2023-02-28T14:34:55.537Z,4.72
2023-02-28T14:37:30.134Z,4.95
2023-02-28T14:39:57.651Z,3.92
2023-02-28T14:42:34.802Z,4.53
2023-02-28T14:45:02.355Z,5.55
2023-02-28T14:47:33.303Z,4.82
2023-02-28T14:50:01.664Z,4.88
2023-02-28T14:52:33.472Z,5.30
2023-02-28T14:55:07.994Z,4.80
2023-02-28T14:57:41.152Z,5.57
2023-02-28T15:00:25.912Z,5.05
2023-02-28T15:02:53.937Z,4.72
2023-02-28T15:05:34.540Z,4.80
2023-02-28T15:08:17.119Z,4.85
2023-02-28T15:10:46.011Z,4.90
2023-02-28T15:13:15.556Z,4.40
2023-02-28T15:16:04.249Z,4.47
2023-02-28T15:18:45.939Z,4.90
2023-02-28T15:21:31.826Z,5.90
2023-02-28T15:24:05.290Z,4.90
2023-02-28T15:26:35.194Z,6.05
2023-02-28T15:29:07.549Z,4.90
2023-02-28T15:31:55.540Z,5.00
2023-02-28T15:34:36.941Z,4.50
2023-02-28T15:37:27.693Z,5.22
2023-02-28T15:39:56.200Z,4.95
2023-02-28T15:42:28.123Z,4.78
2023-02-28T15:44:54.479Z,4.80
2023-02-28T15:47:24.462Z,5.95
2023-02-28T15:49:57.672Z,4.78
2023-02-28T15:52:45.893Z,5.20
2023-02-28T15:55:24.818Z,5.45
2023-02-28T15:57:54.499Z,5.32
2023-02-28T16:00:23.642Z,5.57
2023-02-28T16:02:50.910Z,4.32
2023-02-28T16:05:29.036Z,5.70
2023-02-28T16:07:58.337Z,5.18
2023-02-28T16:10:27.788Z,4.70
2023-02-28T16:12:58.708Z,4.28
2023-02-28T16:15:30.175Z,5.05
2023-02-28T16:17:57.866Z,4.88
2023-02-28T16:20:29.900Z,4.63
2023-02-28T16:22:57.169Z,4.68
2023-02-28T16:25:34.524Z,4.93
2023-02-28T16:28:01.598Z,4.80
2023-02-28T16:32:56.554Z,4.65
2023-02-28T16:35:23.672Z,4.72
2023-02-28T16:40:21.813Z,4.57
2023-02-28T16:42:51.458Z,6.00
2023-02-28T16:45:26.511Z,4.97
2023-02-28T16:47:53.752Z,6.13
2023-02-28T16:50:23.353Z,4.68
2023-02-28T16:52:50.535Z,5.05
2023-02-28T16:55:17.014Z,4.40
2023-02-28T16:57:44.322Z,5.10
2023-02-28T17:00:13.883Z,5.47
2023-02-28T17:02:42.704Z,5.57
2023-02-28T17:05:12.301Z,5.13
2023-02-28T17:07:40.109Z,5.70
2023-02-28T17:10:15.390Z,5.60
2023-02-28T17:12:41.687Z,5.07
2023-02-28T17:15:08.840Z,5.72
2023-02-28T17:20:01.603Z,5.30
2023-02-28T17:22:27.890Z,5.35
2023-02-28T17:24:56.619Z,5.10
2023-02-28T17:27:22.922Z,5.72
2023-02-28T17:29:49.244Z,5.68
2023-02-28T17:32:18.296Z,5.28
2023-02-28T17:34:46.704Z,5.03
2023-02-28T17:37:13.094Z,5.47
2023-02-28T17:39:39.429Z,6.15
2023-02-28T17:42:05.771Z,5.75
2023-02-28T17:44:32.103Z,5.55
2023-02-28T17:47:00.334Z,6.22
2023-02-28T17:49:28.012Z,6.03
2023-02-28T17:51:54.340Z,5.80
2023-02-28T17:54:20.886Z,5.72
2023-02-28T17:56:47.511Z,5.50
2023-02-28T17:59:14.081Z,5.25
2023-02-28T18:01:40.569Z,5.25
2023-02-28T18:04:07.079Z,5.47
2023-02-28T18:06:50.716Z,5.65
2023-02-28T18:09:22.659Z,5.93
2023-02-28T18:11:50.874Z,6.28
2023-02-28T18:14:18.605Z,6.38
2023-02-28T18:16:46.077Z,5.40
2023-02-28T18:19:17.268Z,5.78
2023-02-28T18:21:45.568Z,5.57
2023-02-28T18:24:12.968Z,5.63
2023-02-28T18:26:40.122Z,6.30
2023-02-28T18:31:33.714Z,6.65
2023-02-28T18:34:01.030Z,6.05
2023-02-28T18:36:28.951Z,6.18
2023-02-28T18:38:55.419Z,5.95
2023-02-28T18:41:22.112Z,5.53
2023-02-28T18:43:50.144Z,5.82
2023-02-28T18:46:19.243Z,5.93
2023-02-28T18:48:45.890Z,5.80
2023-02-28T18:51:18.559Z,6.28
2023-02-28T18:53:46.003Z,6.00
2023-02-28T18:56:14.588Z,7.25
2023-02-28T18:58:41.258Z,7.05
2023-02-28T19:01:21.052Z,6.97
2023-02-28T19:03:48.943Z,6.22
2023-02-28T19:06:16.553Z,5.68
2023-02-28T19:08:42.881Z,6.30
2023-02-28T19:11:15.417Z,5.93
2023-02-28T19:13:42.307Z,7.25
2023-02-28T19:16:10.823Z,6.03
2023-02-28T19:18:39.035Z,6.60
2023-02-28T19:21:10.241Z,6.07
2023-02-28T19:23:37.635Z,6.15
2023-02-28T19:26:08.275Z,6.65
2023-02-28T19:28:34.814Z,7.43
2023-02-28T19:31:01.114Z,7.38
2023-02-28T19:33:27.715Z,6.13
2023-02-28T19:35:54.017Z,7.00
2023-02-28T19:38:20.425Z,6.47
2023-02-28T19:40:46.709Z,6.50
2023-02-28T19:43:13.631Z,6.35
2023-02-28T19:45:40.026Z,6.15
2023-02-28T19:48:06.453Z,6.60
2023-02-28T19:50:32.795Z,6.25
2023-02-28T19:53:00.538Z,6.50
2023-02-28T19:55:27.188Z,5.85
2023-02-28T19:57:53.490Z,6.32
2023-02-28T20:00:20.094Z,6.47
2023-02-28T20:02:46.423Z,5.82
2023-02-28T20:05:12.840Z,7.05
2023-02-28T20:07:39.183Z,6.53
2023-02-28T20:10:06.002Z,6.68
2023-02-28T20:12:32.444Z,6.45
2023-02-28T20:14:59.793Z,6.13
2023-02-28T20:17:26.320Z,6.85
2023-02-28T20:19:52.644Z,7.03
2023-02-28T20:22:19.024Z,6.63
2023-02-28T20:24:47.344Z,6.90
2023-02-28T20:27:13.681Z,6.13
2023-02-28T20:29:40.275Z,7.18
2023-02-28T20:32:08.274Z,6.13
2023-02-28T20:34:34.669Z,6.43
2023-02-28T20:37:01.013Z,6.40
2023-02-28T20:39:27.489Z,6.20
2023-02-28T20:41:53.788Z,6.25
2023-02-28T20:44:20.177Z,6.72
2023-02-28T20:46:46.510Z,6.82
2023-02-28T20:49:12.960Z,6.45
2023-02-28T20:51:40.112Z,6.15
2023-02-28T20:54:07.541Z,6.10
2023-02-28T20:56:34.387Z,5.80
2023-02-28T20:59:00.773Z,6.63
2023-02-28T21:01:29.550Z,6.82
2023-02-28T21:03:58.894Z,6.43
2023-02-28T21:06:31.471Z,6.45
2023-02-28T21:08:58.907Z,6.82
2023-02-28T21:11:31.630Z,6.55
2023-02-28T21:14:04.206Z,6.72
2023-02-28T21:16:31.386Z,7.25
2023-02-28T21:21:33.616Z,6.65
2023-02-28T21:24:00.181Z,5.97
2023-02-28T21:26:27.522Z,7.38
2023-02-28T21:31:26.818Z,6.53
2023-02-28T21:33:54.597Z,6.95
2023-02-28T21:36:24.699Z,6.35
2023-02-28T21:38:57.281Z,7.10
2023-02-28T21:41:24.701Z,6.38
2023-02-28T21:43:52.026Z,6.45
2023-02-28T21:48:48.908Z,6.13
2023-02-28T21:51:18.079Z,6.80
2023-02-28T21:53:44.891Z,6.90
2023-02-28T21:56:20.129Z,7.28
2023-02-28T21:58:47.672Z,6.18
2023-02-28T22:01:17.279Z,6.15
2023-02-28T22:03:44.912Z,7.82
2023-02-28T22:06:20.474Z,7.38
2023-02-28T22:08:51.580Z,6.93
2023-02-28T22:11:18.365Z,6.63
2023-02-28T22:13:45.104Z,7.10
2023-02-28T22:16:15.041Z,7.28
2023-02-28T22:18:42.973Z,7.88
2023-02-28T22:21:11.324Z,7.43
2023-02-28T22:23:39.319Z,7.53
2023-02-28T22:26:08.904Z,7.28
2023-02-28T22:28:36.201Z,6.95
2023-02-28T22:33:38.939Z,7.28
2023-02-28T22:36:06.274Z,6.90
2023-02-28T22:41:02.679Z,7.00
2023-02-28T22:45:55.335Z,6.78
2023-02-28T22:48:21.756Z,7.38
2023-02-28T22:50:48.123Z,7.75
2023-02-28T22:53:14.577Z,6.88
2023-02-28T22:55:40.879Z,7.43
2023-02-28T22:58:07.208Z,6.90
2023-02-28T23:00:33.588Z,6.75
2023-02-28T23:02:59.873Z,6.20
2023-02-28T23:05:26.198Z,6.57
2023-02-28T23:07:52.569Z,7.47
2023-02-28T23:10:18.963Z,6.28
2023-02-28T23:12:53.739Z,6.93
2023-02-28T23:15:21.306Z,8.00
2023-02-28T23:17:48.285Z,6.93
2023-02-28T23:20:18.389Z,8.07
2023-02-28T23:22:50.469Z,6.70
2023-02-28T23:25:18.508Z,8.07
2023-02-28T23:27:44.923Z,7.97
2023-02-28T23:30:12.333Z,8.35
2023-02-28T23:32:39.857Z,6.72
2023-02-28T23:35:07.867Z,7.38
2023-02-28T23:37:38.167Z,6.95
2023-02-28T23:40:08.074Z,7.10
2023-02-28T23:42:35.233Z,7.53
2023-02-28T23:45:01.624Z,6.95
2023-02-28T23:47:27.978Z,6.47
2023-02-28T23:49:54.296Z,7.45
2023-02-28T23:52:20.636Z,7.68
2023-02-28T23:54:47.082Z,7.18
2023-02-28T23:57:13.476Z,6.97
2023-02-28T23:59:39.879Z,7.65
